Time;durP1;ratioP1;P1;durP2;ratioP2;P2;SDS_P1;SDS_P2;PMS_P1;PMS_P2;Temp;Humidity;BMP_temperature;BMP_pressure;BME280_temperature;BME280_humidity;BME280_pressure;Samples;Min_cycle;Max_cycle;Signal;HPM_P1;HPM_P2
2023/01/30 00:01:44;;;;;;;0.52;0.52;;;;;;;4.80;46.75;95389.03;4981162;28;20211;-63
2023/01/30 00:04:12;;;;;;;1.33;1.23;;;;;;;4.32;47.49;95383.44;4973469;28;20239;-64
2023/01/30 00:06:43;;;;;;;0.65;0.55;;;;;;;4.59;47.19;95379.75;4972293;28;20198;-64
2023/01/30 00:09:16;;;;;;;0.45;0.43;;;;;;;4.56;47.14;95380.13;4972023;28;20221;-64
2023/01/30 00:11:42;;;;;;;0.63;0.63;;;;;;;4.67;46.90;95382.09;4972377;28;20235;-63
2023/01/30 00:14:09;;;;;;;0.00;0.00;;;;;;;5.11;46.10;95369.06;4972713;28;20191;-63
2023/01/30 00:16:36;;;;;;;0.05;0.05;;;;;;;5.01;46.16;95379.13;4971693;28;20200;-63
2023/01/30 00:19:03;;;;;;;0.00;0.00;;;;;;;5.00;46.63;95387.91;4971806;28;20191;-63
2023/01/30 00:21:30;;;;;;;0.30;0.15;;;;;;;5.02;46.51;95374.72;4971516;28;20289;-64
2023/01/30 00:23:58;;;;;;;0.15;0.15;;;;;;;4.94;46.32;95383.56;4971944;28;20210;-65
2023/01/30 00:26:26;;;;;;;0.00;0.00;;;;;;;4.69;47.14;95385.28;4971018;28;20294;-64
2023/01/30 00:28:52;;;;;;;0.17;0.17;;;;;;;4.41;47.07;95371.84;4971368;28;20636;-63
2023/01/30 00:31:19;;;;;;;0.50;0.43;;;;;;;4.38;47.37;95387.78;4957426;28;20650;-64
2023/01/30 00:33:46;;;;;;;0.25;0.25;;;;;;;4.47;47.57;95390.97;4971262;28;20199;-62
2023/01/30 00:36:13;;;;;;;0.00;0.00;;;;;;;4.55;47.42;95391.53;4969841;28;20199;-63
2023/01/30 00:38:40;;;;;;;0.40;0.28;;;;;;;4.05;48.34;95379.34;4971726;28;20231;-64
2023/01/30 00:41:09;;;;;;;0.05;0.05;;;;;;;4.60;47.41;95381.31;4956976;28;20716;-64
2023/01/30 00:49:19;;;;;;;1.50;1.40;;;;;;;4.18;48.05;95371.50;4965985;28;20199;-64
2023/01/30 00:51:45;;;;;;;0.00;0.00;;;;;;;3.98;48.77;95365.56;4977839;28;20576;-64
2023/01/30 00:54:12;;;;;;;0.13;0.13;;;;;;;4.06;48.25;95365.34;4965343;28;20210;-65
2023/01/30 00:56:39;;;;;;;0.00;0.00;;;;;;;3.91;49.07;95372.56;4970772;28;20199;-63
2023/01/30 00:59:06;;;;;;;1.40;1.17;;;;;;;4.50;47.35;95370.59;4957148;28;20664;-63
2023/01/30 01:01:32;;;;;;;0.40;0.40;;;;;;;4.63;47.46;95365.34;4970773;28;20207;-63
2023/01/30 01:04:00;;;;;;;0.00;0.00;;;;;;;4.51;47.33;95367.00;4970978;28;20215;-63
2023/01/30 01:06:27;;;;;;;0.00;0.00;;;;;;;4.49;47.41;95374.19;4970820;28;20211;-64
2023/01/30 01:08:55;;;;;;;0.00;0.00;;;;;;;4.73;47.34;95365.69;4952844;28;20251;-63
2023/01/30 01:11:25;;;;;;;0.63;0.63;;;;;;;4.63;47.30;95365.34;4961521;28;20199;-64
2023/01/30 01:13:58;;;;;;;0.00;0.00;;;;;;;4.41;47.90;95361.47;4970348;28;20630;-64
2023/01/30 01:16:26;;;;;;;0.30;0.30;;;;;;;4.59;47.42;95361.56;4970538;28;20207;-64
2023/01/30 01:18:53;;;;;;;2.15;1.45;;;;;;;4.56;47.28;95349.00;4970690;28;20195;-64
2023/01/30 01:21:21;;;;;;;0.65;0.65;;;;;;;4.63;47.43;95334.22;4969822;28;20301;-63
2023/01/30 01:23:56;;;;;;;0.00;0.00;;;;;;;4.76;47.22;95344.50;4970564;28;20215;-64
2023/01/30 01:26:23;;;;;;;1.20;1.13;;;;;;;4.65;47.10;95346.97;4957011;28;20218;-64
2023/01/30 01:28:57;;;;;;;0.10;0.10;;;;;;;4.04;48.70;95350.00;4969715;28;20191;-64
2023/01/30 01:31:25;;;;;;;1.30;1.20;;;;;;;4.39;47.74;95352.28;4969617;28;20254;-64
2023/01/30 01:33:54;;;;;;;0.25;0.25;;;;;;;4.29;48.48;95347.50;4985220;28;20277;-64
2023/01/30 01:36:21;;;;;;;0.00;0.00;;;;;;;4.00;48.59;95348.00;4969893;28;20255;-63
2023/01/30 01:39:08;;;;;;;0.00;0.00;;;;;;;4.49;47.86;95332.66;4970331;28;20328;-63
2023/01/30 01:41:35;;;;;;;0.15;0.15;;;;;;;4.68;47.64;95344.75;4951188;28;20420;-63
2023/01/30 01:44:09;;;;;;;0.10;0.10;;;;;;;4.36;47.53;95343.09;4960370;28;20213;-64
2023/01/30 01:46:51;;;;;;;0.55;0.55;;;;;;;4.44;47.54;95345.47;4950029;28;20200;-63
2023/01/30 01:49:29;;;;;;;1.95;1.55;;;;;;;4.87;46.98;95340.47;4966809;28;20233;-63
2023/01/30 01:52:03;;;;;;;0.03;0.03;;;;;;;4.64;47.25;95346.19;4958645;28;20243;-63
2023/01/30 01:54:54;;;;;;;0.00;0.00;;;;;;;4.66;47.29;95341.56;4967454;28;20253;-63
2023/01/30 01:57:29;;;;;;;0.00;0.00;;;;;;;4.47;47.24;95339.84;4969837;28;20214;-64
2023/01/30 02:00:20;;;;;;;5.78;2.72;;;;;;;4.67;47.19;95345.75;4959192;28;20222;-63
2023/01/30 02:02:50;;;;;;;0.00;0.00;;;;;;;4.82;46.62;95342.88;4957772;28;20211;-63
2023/01/30 02:05:19;;;;;;;0.00;0.00;;;;;;;4.47;47.19;95350.22;4969417;28;20725;-64
2023/01/30 02:07:49;;;;;;;1.17;0.90;;;;;;;4.61;47.38;95341.41;4969879;28;20197;-64
2023/01/30 02:10:29;;;;;;;0.43;0.43;;;;;;;4.87;46.98;95336.03;4969345;28;20651;-64
2023/01/30 02:12:56;;;;;;;1.33;1.25;;;;;;;4.92;46.76;95333.66;4969713;28;20203;-63
2023/01/30 02:15:22;;;;;;;3.72;1.15;;;;;;;4.60;46.92;95346.81;4951283;28;20196;-64
2023/01/30 02:17:50;;;;;;;0.00;0.00;;;;;;;4.50;47.30;95336.88;4949423;28;20223;-64
2023/01/30 02:20:35;;;;;;;0.00;0.00;;;;;;;4.58;47.36;95348.81;4948717;28;20330;-64
2023/01/30 02:23:30;;;;;;;0.05;0.05;;;;;;;4.75;46.74;95334.31;4964212;28;20199;-64
2023/01/30 02:26:29;;;;;;;0.80;0.57;;;;;;;4.96;46.21;95334.78;4959037;28;20815;-62
2023/01/30 02:29:08;;;;;;;3.30;1.00;;;;;;;4.69;46.65;95332.59;4970005;28;20248;-63
2023/01/30 02:32:26;;;;;;;0.20;0.20;;;;;;;4.41;47.04;95337.31;4954665;28;20318;-64
2023/01/30 02:35:10;;;;;;;0.47;0.47;;;;;;;4.56;46.69;95328.22;4983765;28;20563;-63
2023/01/30 02:37:55;;;;;;;2.50;0.68;;;;;;;4.47;47.02;95334.66;4956055;28;20278;-63
2023/01/30 02:40:38;;;;;;;15.23;3.22;;;;;;;4.23;47.46;95332.78;4969469;28;20305;-63
2023/01/30 02:43:35;;;;;;;7.15;2.67;;;;;;;4.40;47.25;95323.53;4971258;28;20207;-62
2023/01/30 02:46:43;;;;;;;0.20;0.20;;;;;;;4.56;46.70;95320.44;4955297;28;20208;-62
2023/01/30 02:49:21;;;;;;;0.08;0.08;;;;;;;4.39;47.13;95321.94;4983614;28;20326;-63
2023/01/30 02:51:50;;;;;;;0.65;0.65;;;;;;;4.50;46.57;95323.91;4959391;28;20306;-63
2023/01/30 02:54:16;;;;;;;0.82;0.75;;;;;;;4.72;46.29;95317.38;4971786;28;20207;-64
2023/01/30 02:56:47;;;;;;;0.17;0.17;;;;;;;4.62;46.42;95321.41;4978721;28;20251;-63
2023/01/30 02:59:18;;;;;;;0.93;0.80;;;;;;;4.45;46.59;95325.50;4968759;28;20195;-63
2023/01/30 03:02:10;;;;;;;0.08;0.08;;;;;;;4.76;46.17;95328.16;4952650;28;20215;-63
2023/01/30 03:04:46;;;;;;;0.00;0.00;;;;;;;4.22;46.77;95327.78;4968146;28;20195;-64
2023/01/30 03:07:37;;;;;;;0.00;0.00;;;;;;;4.41;46.76;95332.91;4968748;28;20195;-64
2023/01/30 03:10:27;;;;;;;0.10;0.10;;;;;;;4.73;46.44;95318.97;4958595;28;20334;-64
2023/01/30 03:13:25;;;;;;;0.55;0.55;;;;;;;4.99;45.70;95315.41;4960880;28;20699;-64
2023/01/30 03:16:04;;;;;;;1.17;0.70;;;;;;;4.95;45.69;95304.66;4967880;28;20203;-62
2023/01/30 03:18:31;;;;;;;0.00;0.00;;;;;;;4.69;46.25;95311.81;4968519;28;20667;-64
2023/01/30 03:21:02;;;;;;;;;;;;;;;4.90;46.23;95306.28;4963829;28;20228;-63
2023/01/30 03:23:29;;;;;;;;;;;;;;;4.84;46.03;95304.53;4973274;28;19922;-62
2023/01/30 03:25:57;;;;;;;;;;;;;;;4.95;45.92;95289.06;4972902;28;19922;-62
2023/01/30 03:28:24;;;;;;;;;;;;;;;4.71;46.63;95297.63;4959039;28;20509;-63
2023/01/30 03:30:51;;;;;;;;;;;;;;;4.63;46.28;95292.69;4978821;28;19922;-63
2023/01/30 03:33:17;;;;;;;;;;;;;;;4.73;46.29;95292.22;4969073;28;19949;-63
2023/01/30 03:35:47;;;;;;;;;;;;;;;4.81;45.91;95287.56;4960933;28;19997;-63
2023/01/30 03:38:14;;;;;;;;;;;;;;;4.93;45.78;95278.09;4984977;28;19988;-63
2023/01/30 03:40:41;;;;;;;;;;;;;;;4.73;46.46;95284.41;4986970;28;19922;-62
2023/01/30 03:43:08;;;;;;;;;;;;;;;4.40;47.31;95286.44;4970892;28;20100;-64
2023/01/30 03:45:36;;;;;;;;;;;;;;;4.38;47.00;95289.22;4972108;28;19922;-63
2023/01/30 03:48:02;;;;;;;;;;;;;;;4.57;46.67;95288.31;4973334;28;19976;-63
2023/01/30 03:50:30;;;;;;;;;;;;;;;4.28;47.33;95288.88;4972695;28;20279;-63
2023/01/30 03:52:57;;;;;;;;;;;;;;;4.26;47.11;95285.69;4953854;28;19962;-63
2023/01/30 03:55:23;;;;;;;;;;;;;;;4.16;47.45;95287.13;4952174;28;19927;-63
2023/01/30 03:57:53;;;;;;;;;;;;;;;4.39;46.87;95279.63;4970997;28;19922;-63
2023/01/30 04:00:20;;;;;;;;;;;;;;;4.32;46.95;95279.69;4975274;28;19957;-63
2023/01/30 04:02:49;;;;;;;;;;;;;;;4.12;47.34;95284.16;4972048;28;20222;-62
2023/01/30 04:05:17;;;;;;;;;;;;;;;4.31;46.98;95288.44;4973888;28;19922;-66
2023/01/30 04:07:50;;;;;;;;;;;;;;;4.32;47.35;95279.69;4987543;28;20445;-64
2023/01/30 04:10:18;;;;;;;;;;;;;;;4.57;46.55;95279.72;4972131;28;20392;-64
2023/01/30 04:12:46;;;;;;;;;;;;;;;4.70;46.07;95277.88;4962541;28;19929;-63
2023/01/30 04:15:13;;;;;;;;;;;;;;;4.38;46.87;95278.06;4982396;28;20032;-63
2023/01/30 04:17:46;;;;;;;;;;;;;;;4.03;47.75;95288.75;4972271;28;19937;-64
2023/01/30 04:20:37;;;;;;;;;;;;;;;4.71;46.43;95282.03;4966581;28;19922;-64
2023/01/30 04:23:04;;;;;;;;;;;;;;;4.27;47.16;95279.47;4970602;28;20362;-64
2023/01/30 04:25:30;;;;;;;;;;;;;;;4.02;47.71;95284.59;4971434;28;19996;-64
2023/01/30 04:27:58;;;;;;;;;;;;;;;3.99;47.87;95281.63;4972444;28;19930;-64
2023/01/30 04:30:30;;;;;;;;;;;;;;;3.96;47.75;95284.59;4970117;28;19926;-64
2023/01/30 04:33:14;;;;;;;;;;;;;;;4.29;47.37;95280.06;4967293;28;19922;-64
2023/01/30 04:35:49;;;;;;;;;;;;;;;4.31;47.05;95283.25;4973672;28;19981;-66
2023/01/30 04:38:16;;;;;;;;;;;;;;;4.46;47.05;95281.19;4972103;28;19933;-64
2023/01/30 04:40:46;;;;;;;;;;;;;;;4.41;46.92;95278.44;4972008;28;19926;-64
2023/01/30 04:43:13;;;;;;;;;;;;;;;3.93;47.78;95285.03;4968940;28;19927;-64
2023/01/30 04:46:04;;;;;;;;;;;;;;;4.28;47.28;95273.31;4965346;28;19926;-63
2023/01/30 04:48:31;;;;;;;;;;;;;;;3.56;48.29;95276.16;4963219;28;20059;-65
2023/01/30 04:50:59;;;;;;;1.30;1.20;;;;;;;3.29;49.56;95281.56;4963490;28;20440;-63
2023/01/30 04:53:27;;;;;;;0.00;0.00;;;;;;;3.73;48.48;95255.78;4960840;28;20526;-63
2023/01/30 04:55:54;;;;;;;0.60;0.60;;;;;;;4.15;48.16;95263.00;4968780;28;20200;-64
2023/01/30 04:58:21;;;;;;;0.70;0.70;;;;;;;3.92;48.34;95262.69;4960769;28;20199;-63
2023/01/30 05:00:48;;;;;;;3.40;1.70;;;;;;;3.93;48.23;95256.50;4950539;28;20248;-63
2023/01/30 05:03:16;;;;;;;0.35;0.35;;;;;;;3.77;48.46;95255.19;4970644;28;20543;-64
2023/01/30 05:05:46;;;;;;;0.25;0.25;;;;;;;4.00;48.37;95262.44;4970638;28;20218;-65
2023/01/30 05:08:14;;;;;;;0.40;0.35;;;;;;;4.28;47.53;95247.38;4971370;28;20682;-62
2023/01/30 05:10:41;;;;;;;1.00;0.77;;;;;;;3.80;48.64;95251.34;4970783;28;20203;-63
2023/01/30 05:13:08;;;;;;;0.32;0.22;;;;;;;4.16;47.78;95254.19;4971008;28;20203;-63
2023/01/30 05:15:35;;;;;;;3.30;0.60;;;;;;;4.14;47.79;95266.59;4969749;28;20207;-62
2023/01/30 05:18:02;;;;;;;0.20;0.20;;;;;;;3.83;48.52;95256.94;4971315;28;20222;-64
2023/01/30 05:20:29;;;;;;;0.10;0.10;;;;;;;4.41;47.26;95262.88;4970334;28;20207;-65
2023/01/30 05:22:56;;;;;;;0.00;0.00;;;;;;;4.22;47.74;95268.94;4970635;28;20199;-63
2023/01/30 05:25:22;;;;;;;0.68;0.68;;;;;;;3.92;48.29;95273.06;4969694;28;20209;-63
2023/01/30 05:27:49;;;;;;;0.75;0.75;;;;;;;3.81;48.77;95276.28;4970836;28;20198;-63
2023/01/30 05:30:16;;;;;;;0.08;0.08;;;;;;;4.16;48.03;95274.94;4956020;28;20291;-65
2023/01/30 05:32:43;;;;;;;1.80;1.70;;;;;;;3.96;47.97;95276.81;4970240;28;20358;-61
2023/01/30 05:35:10;;;;;;;0.00;0.00;;;;;;;3.77;48.88;95280.28;4969891;28;20195;-63
2023/01/30 05:37:37;;;;;;;0.57;0.57;;;;;;;3.88;49.28;95277.06;4970980;28;20199;-63
2023/01/30 05:40:05;;;;;;;0.10;0.10;;;;;;;4.19;48.71;95269.38;4969877;28;20191;-62
2023/01/30 05:42:32;;;;;;;0.00;0.00;;;;;;;4.11;49.05;95272.19;4970992;28;20222;-63
2023/01/30 05:44:59;;;;;;;0.10;0.10;;;;;;;4.39;48.49;95267.47;4970237;28;20227;-66
2023/01/30 05:47:26;;;;;;;0.00;0.00;;;;;;;4.20;48.53;95264.97;4970764;28;20531;-62
2023/01/30 05:49:52;;;;;;;3.63;0.60;;;;;;;4.47;49.44;95267.22;4970342;28;20196;-71
2023/01/30 05:52:19;;;;;;;0.77;0.73;;;;;;;4.32;49.29;95263.31;4969800;28;20235;-64
2023/01/30 05:54:46;;;;;;;1.15;0.52;;;;;;;4.59;49.58;95273.34;4968543;28;20198;-70
2023/01/30 05:57:13;;;;;;;0.10;0.10;;;;;;;4.16;49.88;95280.13;4955167;28;20287;-62
2023/01/30 05:59:40;;;;;;;0.73;0.73;;;;;;;4.13;49.16;95280.56;4968687;28;20211;-63
2023/01/30 06:02:07;;;;;;;1.58;1.48;;;;;;;4.00;49.38;95283.19;4968643;28;20231;-61
2023/01/30 06:04:35;;;;;;;1.60;1.50;;;;;;;4.48;49.72;95276.59;4969748;28;20241;-65
2023/01/30 06:07:02;;;;;;;0.82;0.73;;;;;;;4.63;49.37;95277.13;4971099;28;20207;-62
2023/01/30 06:09:29;;;;;;;0.43;0.43;;;;;;;4.78;47.92;95277.59;4973689;28;20722;-62
2023/01/30 06:11:56;;;;;;;0.00;0.00;;;;;;;3.94;49.52;95281.44;4976317;28;20273;-63
2023/01/30 06:14:23;;;;;;;6.07;1.85;;;;;;;4.34;48.53;95275.09;4978115;28;20568;-63
2023/01/30 06:16:50;;;;;;;0.00;0.00;;;;;;;4.47;48.46;95269.81;4976128;28;20205;-62
2023/01/30 06:19:16;;;;;;;0.00;0.00;;;;;;;4.26;48.80;95275.31;4969246;28;20706;-62
2023/01/30 06:21:44;;;;;;;0.00;0.00;;;;;;;4.06;49.09;95279.78;4969756;28;20218;-63
2023/01/30 06:24:10;;;;;;;2.65;1.25;;;;;;;4.27;48.49;95271.69;4969656;28;20195;-62
2023/01/30 06:26:37;;;;;;;0.00;0.00;;;;;;;4.18;48.83;95266.97;4969458;28;20203;-62
2023/01/30 06:29:04;;;;;;;0.47;0.47;;;;;;;4.34;49.41;95267.31;4969527;28;20206;-68
2023/01/30 06:31:31;;;;;;;2.22;2.08;;;;;;;4.64;50.34;95268.31;4969327;28;20195;-61
2023/01/30 06:33:58;;;;;;;0.25;0.25;;;;;;;4.53;48.75;95266.38;4970071;28;20203;-62
2023/01/30 06:36:24;;;;;;;0.03;0.03;;;;;;;4.48;48.58;95268.81;4969516;28;20202;-65
2023/01/30 06:38:51;;;;;;;0.05;0.05;;;;;;;4.08;48.92;95267.41;4968747;28;20206;-62
2023/01/30 06:41:18;;;;;;;5.78;1.20;;;;;;;4.59;48.45;95270.75;4968378;28;20278;-62
2023/01/30 06:43:46;;;;;;;0.43;0.43;;;;;;;4.46;48.60;95265.63;4968418;28;20199;-63
2023/01/30 06:46:13;;;;;;;0.25;0.25;;;;;;;4.13;49.18;95275.38;4968492;28;20191;-63
2023/01/30 06:48:40;;;;;;;3.92;0.50;;;;;;;4.21;48.96;95271.75;4968892;28;20203;-63
2023/01/30 06:51:06;;;;;;;0.28;0.28;;;;;;;4.68;48.22;95272.09;4968332;28;20254;-62
2023/01/30 06:53:33;;;;;;;0.20;0.20;;;;;;;4.51;48.34;95278.75;4969373;28;20226;-61
2023/01/30 06:56:00;;;;;;;0.00;0.00;;;;;;;4.41;48.25;95278.44;4968890;28;20227;-61
2023/01/30 06:58:27;;;;;;;0.30;0.30;;;;;;;4.44;48.56;95279.81;4969704;28;20714;-63
2023/01/30 07:00:54;;;;;;;0.80;0.80;;;;;;;4.32;48.50;95281.47;4969054;28;20274;-62
2023/01/30 07:03:21;;;;;;;2.88;0.85;;;;;;;4.08;48.84;95283.78;4969442;28;20226;-62
2023/01/30 07:05:48;;;;;;;0.90;0.57;;;;;;;4.16;48.71;95285.31;4968499;28;20199;-61
2023/01/30 07:08:15;;;;;;;3.97;2.53;;;;;;;4.27;48.77;95284.66;4956751;28;20602;-63
2023/01/30 07:10:44;;;;;;;1.70;1.20;;;;;;;4.04;49.18;95292.16;4967927;28;20273;-63
2023/01/30 07:13:11;;;;;;;0.73;0.73;;;;;;;3.91;49.44;95292.19;4969078;28;20590;-63
2023/01/30 07:15:38;;;;;;;0.00;0.00;;;;;;;4.29;48.03;95295.63;4969034;28;20202;-62
2023/01/30 07:18:05;;;;;;;0.10;0.10;;;;;;;4.55;47.87;95290.31;4969374;28;20215;-62
2023/01/30 07:20:33;;;;;;;0.57;0.57;;;;;;;4.02;48.92;95289.78;4969053;28;20191;-63
2023/01/30 07:23:00;;;;;;;0.52;0.52;;;;;;;4.32;48.70;95295.25;4969597;28;20234;-63
2023/01/30 07:25:28;;;;;;;2.28;1.75;;;;;;;4.25;48.45;95284.13;4969183;28;20262;-63
2023/01/30 07:27:57;;;;;;;1.10;1.10;;;;;;;4.13;48.36;95288.34;4969632;28;20210;-62
2023/01/30 07:30:26;;;;;;;1.92;1.77;;;;;;;4.67;47.74;95299.03;4968982;28;20200;-62
2023/01/30 07:32:56;;;;;;;0.43;0.40;;;;;;;4.77;47.19;95291.59;4969189;28;20685;-63
2023/01/30 07:35:25;;;;;;;3.42;1.60;;;;;;;4.72;47.89;95301.81;4956176;28;20199;-63
2023/01/30 07:37:52;;;;;;;0.00;0.00;;;;;;;4.72;48.09;95295.81;4969112;28;20654;-62
2023/01/30 07:40:19;;;;;;;2.85;1.50;;;;;;;4.93;47.14;95296.28;4971951;28;20638;-62
2023/01/30 07:43:01;;;;;;;1.88;1.75;;;;;;;4.58;47.86;95300.28;4972428;28;20233;-62
2023/01/30 07:45:35;;;;;;;0.30;0.30;;;;;;;4.63;47.68;95297.88;4972506;28;20297;-62
2023/01/30 07:48:02;;;;;;;0.08;0.08;;;;;;;4.42;47.68;95290.41;4972515;28;20623;-62
2023/01/30 07:50:29;;;;;;;0.05;0.05;;;;;;;4.46;47.96;95301.94;4972230;28;20670;-62
2023/01/30 07:52:56;;;;;;;3.30;1.17;;;;;;;4.45;48.15;95308.16;4972413;28;20214;-62
2023/01/30 07:55:23;;;;;;;0.25;0.25;;;;;;;4.51;48.04;95283.94;4972195;28;20195;-62
2023/01/30 07:57:50;;;;;;;0.17;0.17;;;;;;;4.38;48.33;95285.84;4972227;28;20195;-62
2023/01/30 08:00:17;;;;;;;0.00;0.00;;;;;;;4.18;48.74;95278.13;4971961;28;20200;-62
2023/01/30 08:02:45;;;;;;;1.50;1.40;;;;;;;4.71;47.72;95276.03;4972482;28;20211;-63
2023/01/30 08:05:11;;;;;;;0.17;0.17;;;;;;;4.68;47.49;95269.50;4971497;28;20682;-63
2023/01/30 08:07:38;;;;;;;24.45;1.75;;;;;;;4.99;46.63;95274.66;4972120;28;20199;-63
2023/01/30 08:10:06;;;;;;;0.00;0.00;;;;;;;4.85;47.23;95252.38;4971421;28;20210;-65
2023/01/30 08:12:35;;;;;;;0.60;0.60;;;;;;;5.20;46.43;95262.31;4963745;28;20571;-63
2023/01/30 08:15:02;;;;;;;0.03;0.03;;;;;;;4.84;47.17;95273.38;4966529;28;20203;-62
2023/01/30 08:17:29;;;;;;;0.00;0.00;;;;;;;4.54;47.68;95268.00;4972335;28;20715;-62
2023/01/30 08:19:56;;;;;;;0.10;0.10;;;;;;;4.52;47.22;95259.63;4971801;28;20210;-63
2023/01/30 08:22:23;;;;;;;0.57;0.57;;;;;;;4.49;47.22;95260.00;4972221;28;20234;-63
2023/01/30 08:24:50;;;;;;;0.80;0.57;;;;;;;4.80;47.00;95262.59;4971518;28;20871;-62
2023/01/30 08:27:16;;;;;;;2.95;2.75;;;;;;;4.78;46.49;95259.41;4971794;28;20191;-62
2023/01/30 08:29:43;;;;;;;0.00;0.00;;;;;;;4.94;46.23;95264.13;4971464;28;20616;-62
2023/01/30 08:32:10;;;;;;;0.75;0.75;;;;;;;4.67;46.34;95256.72;4971839;28;20314;-63
2023/01/30 08:34:38;;;;;;;1.02;0.60;;;;;;;4.66;46.78;95255.91;4971818;28;20206;-64
2023/01/30 08:37:05;;;;;;;1.58;1.48;;;;;;;4.66;47.50;95252.53;4972107;28;20204;-62
2023/01/30 08:39:32;;;;;;;0.88;0.75;;;;;;;4.86;47.14;95246.19;4971192;28;20616;-61
2023/01/30 08:42:01;;;;;;;0.50;0.50;;;;;;;4.91;46.64;95248.13;4971381;28;20658;-62
2023/01/30 08:44:28;;;;;;;0.28;0.28;;;;;;;4.83;46.77;95238.84;4971116;28;20199;-63
2023/01/30 08:46:55;;;;;;;0.65;0.65;;;;;;;4.91;46.57;95246.34;4971121;28;20191;-63
2023/01/30 08:49:22;;;;;;;1.58;1.48;;;;;;;4.50;47.04;95240.84;4970750;28;20226;-63
2023/01/30 08:51:49;;;;;;;0.25;0.25;;;;;;;4.73;46.55;95240.28;4970482;28;20530;-63
2023/01/30 08:54:15;;;;;;;0.03;0.03;;;;;;;4.72;46.67;95239.53;4971409;28;20686;-63
2023/01/30 08:56:42;;;;;;;5.15;0.88;;;;;;;4.65;46.68;95228.38;4970412;28;20211;-63
2023/01/30 08:59:09;;;;;;;3.72;2.47;;;;;;;4.84;46.37;95232.63;4971127;28;20191;-62
2023/01/30 09:01:37;;;;;;;0.47;0.47;;;;;;;4.45;46.81;95238.09;4970711;28;20219;-62
2023/01/30 09:04:04;;;;;;;0.00;0.00;;;;;;;4.39;46.83;95227.75;4970837;28;20285;-62
2023/01/30 09:06:31;;;;;;;0.00;0.00;;;;;;;4.55;46.64;95225.44;4970463;28;20203;-62
2023/01/30 09:08:59;;;;;;;5.63;4.07;;;;;;;4.67;46.30;95212.59;4971076;28;20610;-62
2023/01/30 09:11:25;;;;;;;0.57;0.57;;;;;;;4.72;46.00;95213.56;4970862;28;20226;-62
2023/01/30 09:13:53;;;;;;;0.43;0.43;;;;;;;4.37;46.65;95220.19;4971248;28;20207;-62
2023/01/30 09:16:20;;;;;;;0.00;0.00;;;;;;;4.47;46.49;95215.31;4970611;28;20282;-62
2023/01/30 09:18:47;;;;;;;0.00;0.00;;;;;;;4.43;46.21;95198.59;4970795;28;20238;-63
2023/01/30 09:21:15;;;;;;;0.20;0.13;;;;;;;4.79;45.88;95209.13;4970794;28;20215;-63
2023/01/30 09:23:42;;;;;;;0.00;0.00;;;;;;;4.63;46.00;95212.22;4970693;28;20647;-62
2023/01/30 09:26:09;;;;;;;0.20;0.20;;;;;;;4.89;45.64;95219.81;4970359;28;20214;-63
2023/01/30 09:28:36;;;;;;;0.00;0.00;;;;;;;4.93;45.73;95210.59;4970851;28;20597;-62
2023/01/30 09:31:03;;;;;;;0.22;0.22;;;;;;;5.00;45.36;95216.50;4970760;28;20204;-63
2023/01/30 09:33:30;;;;;;;0.00;0.00;;;;;;;5.10;45.43;95211.66;4970569;28;20321;-63
2023/01/30 09:35:57;;;;;;;0.10;0.10;;;;;;;5.29;45.25;95214.28;4970110;28;20234;-62
2023/01/30 09:38:24;;;;;;;0.43;0.43;;;;;;;5.05;45.63;95211.47;4970415;28;20290;-62
2023/01/30 09:40:53;;;;;;;0.08;0.08;;;;;;;4.82;45.39;95208.69;4970223;28;20210;-63
2023/01/30 09:43:38;;;;;;;0.20;0.20;;;;;;;4.64;45.96;95195.63;4970083;28;20266;-63
2023/01/30 09:46:33;;;;;;;0.00;0.00;;;;;;;4.14;46.90;95206.97;4969940;28;20199;-63
2023/01/30 09:49:18;;;;;;;0.22;0.22;;;;;;;4.47;46.79;95199.75;4970598;28;20195;-62
2023/01/30 09:52:17;;;;;;;0.10;0.10;;;;;;;4.56;46.79;95192.53;4970085;28;20203;-63
2023/01/30 09:54:45;;;;;;;1.30;0.90;;;;;;;4.39;46.49;95189.63;4963586;28;20210;-62
2023/01/30 09:57:24;;;;;;;0.30;0.30;;;;;;;4.52;46.17;95197.34;4969728;28;20553;-63
2023/01/30 10:00:32;;;;;;;2.95;1.75;;;;;;;4.71;46.74;95188.59;4970110;28;20294;-63
2023/01/30 10:03:11;;;;;;;0.25;0.25;;;;;;;4.53;46.37;95183.34;4978724;28;20226;-63
2023/01/30 10:05:53;;;;;;;0.00;0.00;;;;;;;4.41;46.44;95181.63;4967967;28;20214;-62
2023/01/30 10:08:28;;;;;;;0.85;0.70;;;;;;;4.34;46.99;95178.31;4970234;28;20279;-62
2023/01/30 10:11:11;;;;;;;0.08;0.08;;;;;;;4.81;47.94;95162.97;4969932;28;20289;-63
2023/01/30 10:13:41;;;;;;;0.00;0.00;;;;;;;4.95;47.50;95167.03;4969705;28;20606;-62
2023/01/30 10:16:23;;;;;;;1.27;1.20;;;;;;;4.84;46.57;95149.56;4969515;28;20238;-63
2023/01/30 10:19:07;;;;;;;0.38;0.38;;;;;;;4.87;46.98;95149.13;4970061;28;20202;-62
2023/01/30 10:21:49;;;;;;;0.00;0.00;;;;;;;4.68;46.74;95144.91;4969300;28;20257;-62
2023/01/30 10:24:31;;;;;;;0.15;0.15;;;;;;;4.81;46.28;95144.00;4970307;28;20556;-64
2023/01/30 10:26:58;;;;;;;0.08;0.08;;;;;;;4.35;46.33;95146.97;4969136;28;20601;-64
2023/01/30 10:29:37;;;;;;;1.75;1.65;;;;;;;4.41;46.55;95127.97;4969870;28;20199;-63
2023/01/30 10:32:11;;;;;;;0.45;0.45;;;;;;;4.31;46.70;95139.78;4969313;28;20273;-62
2023/01/30 10:34:42;;;;;;;0.05;0.05;;;;;;;4.33;46.38;95125.63;4969824;28;20252;-62
2023/01/30 10:37:23;;;;;;;2.30;2.10;;;;;;;4.47;45.83;95116.72;4969299;28;20586;-63
2023/01/30 10:39:50;;;;;;;0.00;0.00;;;;;;;4.17;46.27;95114.97;4969361;28;20302;-61
2023/01/30 10:42:56;;;;;;;0.38;0.38;;;;;;;4.03;46.46;95119.47;4970060;28;20214;-63
2023/01/30 10:45:31;;;;;;;0.10;0.10;;;;;;;4.39;45.99;95103.22;4975556;28;20210;-62
2023/01/30 10:48:34;;;;;;;0.00;0.00;;;;;;;4.65;45.25;95093.41;4969613;28;20754;-63
2023/01/30 10:51:32;;;;;;;0.10;0.10;;;;;;;4.86;44.96;95095.63;4968749;28;20631;-63
2023/01/30 10:54:12;;;;;;;0.55;0.55;;;;;;;4.11;45.43;95088.06;4969422;28;20207;-62
2023/01/30 10:56:42;;;;;;;0.00;0.00;;;;;;;4.19;45.44;95090.41;4969436;28;20205;-63
2023/01/30 10:59:21;;;;;;;0.30;0.25;;;;;;;3.92;45.79;95073.47;4969570;28;20200;-63
2023/01/30 11:01:57;;;;;;;1.02;1.02;;;;;;;4.26;45.26;95057.44;4969175;28;20209;-63
2023/01/30 11:04:43;;;;;;;0.77;0.77;;;;;;;4.37;45.28;95054.16;4969294;28;20311;-62
2023/01/30 11:07:12;;;;;;;0.00;0.00;;;;;;;4.69;44.85;95047.84;4969421;28;20230;-63
2023/01/30 11:09:47;;;;;;;0.00;0.00;;;;;;;5.15;44.23;95042.16;4984680;28;20201;-63
2023/01/30 11:12:14;;;;;;;0.00;0.00;;;;;;;5.44;43.91;95043.22;4969159;28;20302;-63
2023/01/30 11:14:51;;;;;;;0.20;0.20;;;;;;;5.60;43.26;95040.78;4971711;28;20191;-63
2023/01/30 11:17:20;;;;;;;0.30;0.30;;;;;;;5.29;43.55;95038.41;4973020;28;20228;-63
2023/01/30 11:19:55;;;;;;;0.05;0.05;;;;;;;5.28;43.43;95020.41;4972790;28;20199;-62
2023/01/30 11:22:27;;;;;;;0.00;0.00;;;;;;;4.31;44.64;95012.69;4973098;28;20309;-62
2023/01/30 11:25:05;;;;;;;0.35;0.35;;;;;;;4.90;44.33;95018.88;4955447;28;20204;-62
2023/01/30 11:27:33;;;;;;;0.00;0.00;;;;;;;4.78;44.67;95012.81;4972986;28;20207;-63
2023/01/30 11:30:18;;;;;;;2.83;2.05;;;;;;;4.59;44.89;95000.84;4972503;28;20262;-62
2023/01/30 11:32:49;;;;;;;0.17;0.17;;;;;;;5.03;44.35;95003.16;4972372;28;20309;-62
2023/01/30 11:35:24;;;;;;;0.20;0.20;;;;;;;5.01;44.31;95005.19;4972250;28;20713;-61
2023/01/30 11:37:52;;;;;;;2.13;1.95;;;;;;;4.89;43.82;95004.31;4972597;28;20242;-62
2023/01/30 11:40:26;;;;;;;0.85;0.85;;;;;;;5.03;44.14;94997.97;4959646;28;20199;-62
2023/01/30 11:43:05;;;;;;;0.68;0.68;;;;;;;4.87;43.85;94988.16;4972274;28;20393;-62
2023/01/30 11:45:38;;;;;;;0.88;0.88;;;;;;;5.38;43.30;94984.31;4972080;28;20206;-62
2023/01/30 11:48:25;;;;;;;4.05;1.15;;;;;;;5.02;43.70;94972.19;4972197;28;20289;-63
2023/01/30 11:51:11;;;;;;;0.93;0.90;;;;;;;5.11;43.72;94961.28;4971927;28;20214;-62
2023/01/30 11:53:58;;;;;;;0.57;0.57;;;;;;;5.25;42.99;94959.31;4972509;28;20227;-63
2023/01/30 11:56:25;;;;;;;2.67;2.47;;;;;;;4.90;43.73;94960.97;4959723;28;20209;-62
2023/01/30 11:59:02;;;;;;;0.00;0.00;;;;;;;5.18;43.73;94956.78;4987082;28;20262;-61
2023/01/30 12:01:35;;;;;;;0.13;0.13;;;;;;;5.24;43.21;94949.94;4986745;28;20246;-64
2023/01/30 12:04:07;;;;;;;0.55;0.55;;;;;;;5.34;42.67;94939.00;4971879;28;20310;-62
2023/01/30 12:06:37;;;;;;;0.50;0.50;;;;;;;5.79;42.92;94927.91;4972355;28;20214;-62
2023/01/30 12:09:25;;;;;;;0.03;0.03;;;;;;;6.08;42.26;94923.66;4972485;28;20226;-61
2023/01/30 12:11:52;;;;;;;2.08;0.60;;;;;;;5.69;41.90;94924.28;4971632;28;20203;-62
2023/01/30 12:14:39;;;;;;;1.52;1.42;;;;;;;6.15;42.26;94913.91;4971847;28;20199;-62
2023/01/30 12:17:11;;;;;;;0.77;0.77;;;;;;;5.53;42.05;94914.56;4971953;28;20202;-63
2023/01/30 12:19:56;;;;;;;1.35;0.90;;;;;;;5.78;42.02;94913.34;4972464;28;20203;-61